GRZ535 Details

Departure: Wiley Post-Will Rogers Memorial Airport (PABR)
Arrival: Deadhorse Airport (PASC) at N/A
Route: BRW J507 SCC
Notes:


Current Weather Information
PABR 191553Z 33009KT 9SM OVC004 04/03 A3027 RMK AO2 SLP250 T00390028
PASC 191553Z 28005KT 10SM OVC007 04/03 A3023 RMK AO2 SLP238 T00390028 $